Funabashi, Japan
Current Conditions -  °F | °C
As of 4:30 PM on Thursday 23 Oct 2014 (Local Time) from RJTT Reporting Station
Rain Showers Rain Showers  
Wind Chill: 59°   Ceiling: 5000
Heat Index: 59°   Visibility: 6mi
Dew Point: 52°   Wind: 14mph
Humidity: 77%   Direction: 360°N
Pressure: 30.06"   Gusts: NA
Location:  35.7°N, 139.99°E
Report Text: RJTT 230730Z 36012KT 9999 VCSH FEW020 BKN050 15/11 Q1018 NOSIG
Loading
Personal Weather Stations






























Interactive Weather Map
Tropical Storm Tracking
New forecast layout! Learn more

10-Day Weather Forecast

Advertisements
Track Severe Weather on mobile